createdAt,value
2022-10-11T00:02:57.602Z,2.38
2022-10-11T00:12:59.521Z,1.48
2022-10-11T00:23:01.331Z,1.65
2022-10-11T00:33:03.151Z,1.73
2022-10-11T00:43:14.306Z,1.63
2022-10-11T00:53:16.181Z,2.53
2022-10-11T01:03:23.075Z,1.33
2022-10-11T01:13:49.119Z,1.77
2022-10-11T01:24:08.890Z,1.45
2022-10-11T01:34:32.594Z,1.77
2022-10-11T01:44:35.981Z,1.60
2022-10-11T01:55:08.065Z,1.60
2022-10-11T02:05:19.694Z,1.80
2022-10-11T02:15:23.743Z,1.40
2022-10-11T02:25:28.784Z,1.30
2022-10-11T02:35:34.535Z,1.77
2022-10-11T02:45:56.007Z,1.67
2022-10-11T02:55:57.888Z,1.45
2022-10-11T03:06:04.350Z,2.15
2022-10-11T03:16:06.363Z,1.20
2022-10-11T03:26:09.183Z,1.33
2022-10-11T03:36:11.282Z,1.27
2022-10-11T03:46:13.063Z,1.70
2022-10-11T03:56:15.577Z,1.45
2022-10-11T04:06:17.872Z,1.10
2022-10-11T04:16:19.789Z,2.25
2022-10-11T04:26:21.586Z,2.20
2022-10-11T04:36:24.139Z,1.33
2022-10-11T04:46:26.040Z,1.30
2022-10-11T04:56:28.876Z,1.30
2022-10-11T05:06:30.647Z,1.85
2022-10-11T05:16:32.479Z,1.75
2022-10-11T05:26:34.755Z,1.95
2022-10-11T05:36:36.531Z,1.52
2022-10-11T05:46:39.002Z,2.03
2022-10-11T05:56:40.795Z,1.63
2022-10-11T06:06:42.544Z,2.05
2022-10-11T06:16:44.304Z,2.67
2022-10-11T06:26:48.211Z,1.60
2022-10-11T06:36:49.999Z,1.70
2022-10-11T06:46:51.760Z,1.60
2022-10-11T06:56:53.679Z,1.85
2022-10-11T07:06:55.458Z,1.95
2022-10-11T07:16:57.510Z,2.45
2022-10-11T07:26:59.268Z,1.83
2022-10-11T07:37:01.023Z,2.10
2022-10-11T07:47:03.629Z,14.90
2022-10-11T07:57:07.527Z,12.63
2022-10-11T08:07:09.332Z,13.27
2022-10-11T08:17:11.791Z,16.35
2022-10-11T08:27:13.582Z,15.13
2022-10-11T08:37:15.581Z,9.00
2022-10-11T08:47:29.092Z,9.90
2022-10-11T08:57:35.896Z,6.63
2022-10-11T09:07:37.639Z,7.55
2022-10-11T09:18:19.898Z,20.52
2022-10-11T09:28:37.740Z,29.52
2022-10-11T09:38:45.551Z,22.75
2022-10-11T09:48:47.874Z,15.30
2022-10-11T09:58:49.856Z,14.77
2022-10-11T10:08:52.109Z,15.27
2022-10-11T10:19:05.088Z,12.25
2022-10-11T10:29:09.584Z,10.55
2022-10-11T10:39:24.782Z,9.38
2022-10-11T10:49:55.214Z,8.32
2022-10-11T11:00:17.276Z,9.25
2022-10-11T11:10:22.978Z,6.85
2022-10-11T11:21:00.182Z,6.47
2022-10-11T11:31:22.758Z,5.45
2022-10-11T11:41:30.308Z,4.18
2022-10-11T11:51:41.675Z,4.55
2022-10-11T12:01:47.166Z,3.13
2022-10-11T12:11:55.884Z,7.63
2022-10-11T12:22:28.456Z,4.10
2022-10-11T12:32:36.936Z,4.65
2022-10-11T12:42:38.751Z,2.50
2022-10-11T12:52:58.098Z,3.83
2022-10-11T13:03:32.610Z,3.00
2022-10-11T13:13:58.865Z,2.85
2022-10-11T13:24:04.603Z,2.30
2022-10-11T13:34:06.719Z,2.15
2022-10-11T13:44:09.467Z,4.32
2022-10-11T13:54:13.792Z,3.38
2022-10-11T14:04:17.369Z,5.43
2022-10-11T14:14:29.418Z,5.18
2022-10-11T14:24:31.301Z,3.50
2022-10-11T14:34:34.553Z,3.28
2022-10-11T14:44:36.439Z,4.15
2022-10-11T14:54:38.260Z,2.33
2022-10-11T15:04:40.133Z,1.95
2022-10-11T15:14:41.931Z,2.90
2022-10-11T15:24:46.996Z,3.42
2022-10-11T15:34:51.173Z,2.10
2022-10-11T15:44:52.981Z,2.50
2022-10-11T15:54:54.793Z,2.20
2022-10-11T16:04:56.588Z,2.33
2022-10-11T16:14:58.427Z,2.42
2022-10-11T16:25:01.158Z,3.05
2022-10-11T16:35:03.108Z,2.17
2022-10-11T16:45:05.775Z,2.40
2022-10-11T16:55:07.945Z,3.05
2022-10-11T17:05:09.712Z,3.22
2022-10-11T17:15:12.602Z,5.00
2022-10-11T17:25:14.444Z,3.95
2022-10-11T17:35:16.341Z,3.33
2022-10-11T17:45:19.236Z,3.28
2022-10-11T17:55:21.162Z,4.50
2022-10-11T18:05:22.972Z,3.20
2022-10-11T18:15:24.787Z,2.65
2022-10-11T18:25:26.573Z,3.30
2022-10-11T18:35:28.333Z,2.47
2022-10-11T18:45:30.090Z,2.17
2022-10-11T18:55:31.961Z,3.45
2022-10-11T19:05:33.841Z,2.20
2022-10-11T19:15:36.165Z,2.80
2022-10-11T19:25:37.997Z,5.82
2022-10-11T19:35:42.223Z,2.10
2022-10-11T19:45:44.079Z,2.63
2022-10-11T19:55:46.658Z,2.30
2022-10-11T20:05:48.493Z,1.75
2022-10-11T20:15:50.280Z,2.78
2022-10-11T20:26:01.946Z,2.50
2022-10-11T20:36:06.864Z,2.90
2022-10-11T20:46:11.087Z,2.05
2022-10-11T20:56:15.143Z,2.83
2022-10-11T21:06:17.466Z,3.30
2022-10-11T21:16:19.240Z,2.03
2022-10-11T21:26:22.013Z,2.05
2022-10-11T21:36:24.947Z,4.03
2022-10-11T21:56:53.351Z,4.10
2022-10-11T22:06:55.177Z,2.13
2022-10-11T22:16:57.231Z,2.08
2022-10-11T22:26:59.002Z,2.25
2022-10-11T22:37:00.762Z,2.28
2022-10-11T22:47:02.807Z,2.08
2022-10-11T22:57:04.667Z,4.05
2022-10-11T23:07:06.423Z,2.28
2022-10-11T23:17:08.224Z,2.63
2022-10-11T23:27:10.535Z,2.08
2022-10-11T23:37:12.294Z,1.50
2022-10-11T23:47:14.063Z,1.60
2022-10-11T23:57:15.843Z,2.40
